Davis Monthan Air Force Base
KDMA : now visible

Airfield :











YOU CAN JOIN US ON...

 
LOGIN :

Register | Disclaimer

   EN    FR    IT 

 









Legend :    VFR   Marginal VFR   IFR   Intensive IFR   Very Intensive IFR
Visi :
Ceiling :
>= 8 km
>= 3000ft
5 to 8 km
1000 to 3000 ft
1500m to 5 km
500 to 1000 ft
800 to 1500m
200 to 500 ft
< 800m
< 200 ft
Symbols :   Thunderstorms  Fog  Heavy snow  Heavy precipitations  Wind > 20 kt






- Airport Elevation : 2704 ft


KDMA - Davis Monthan Air Force Base

METAR N/A
TAF TAF KDMA
Valid from the 21 at 22:00 until the 23 at 04:00 UTC


212209Z 2122/2304 21015G26KT 9999 SKC 520009 QNH2974INS
TEMPO 2122/2202 21025G35KT
BECMG 2201/2202 21012G18KT 9999 SKC QNH2976INS
BECMG 2207/2208 VRB06KT 9999 SKC QNH2984INS
BECMG 2218/2219 25012G20KT 9999 FEW210 QNH2973INS
TEMPO 2219/2301 25015G25KT TX30/2123Z TN12/2211Z
KZAB FIR / North America



MET'MAP, your aeronautical weather chart ! - Copyright ORBIFLY December 2007 - Disclaimer

ORBIFLY MET'MAP TEAM :

Programming & Development : Alexandra Zaïnal
Concept & original design : Baudouin d'Aumeries
Assistance for programming : Marc-Olivier Méhu
Technical & hardware support : Manuel Goepfert

Contact : metmap@orbifly.com




SOURCES & CREDITS :

   NOAA       Earth
Advisory